createdAt,value
2023-04-23T00:01:14.107Z,5.38
2023-04-23T00:04:07.189Z,5.60
2023-04-23T00:06:56.196Z,7.75
2023-04-23T00:09:45.088Z,4.90
2023-04-23T00:12:32.820Z,5.97
2023-04-23T00:15:22.935Z,7.72
2023-04-23T00:18:12.334Z,7.45
2023-04-23T00:21:03.954Z,3.90
2023-04-23T00:23:52.445Z,9.13
2023-04-23T00:26:39.905Z,7.22
2023-04-23T00:29:27.069Z,5.78
2023-04-23T00:32:14.973Z,5.95
2023-04-23T00:35:02.121Z,4.97
2023-04-23T00:37:49.292Z,4.15
2023-04-23T00:40:36.642Z,3.38
2023-04-23T00:43:24.232Z,3.85
2023-04-23T00:46:15.227Z,4.10
2023-04-23T00:49:04.078Z,3.22
2023-04-23T00:51:51.529Z,5.25
2023-04-23T00:54:39.043Z,3.80
2023-04-23T00:57:27.448Z,5.15
2023-04-23T01:00:15.130Z,3.67
2023-04-23T01:03:05.633Z,4.45
2023-04-23T01:05:56.869Z,2.53
2023-04-23T01:08:45.145Z,3.53
2023-04-23T01:11:38.187Z,3.00
2023-04-23T01:14:25.738Z,7.55
2023-04-23T01:17:17.842Z,4.45
2023-04-23T01:20:06.574Z,4.05
2023-04-23T01:22:54.414Z,3.15
2023-04-23T01:25:42.058Z,4.53
2023-04-23T01:28:30.449Z,3.88
2023-04-23T01:31:18.784Z,3.70
2023-04-23T01:34:06.837Z,4.40
2023-04-23T01:36:55.276Z,2.58
2023-04-23T01:39:42.648Z,5.10
2023-04-23T01:42:31.940Z,2.88
2023-04-23T01:45:22.286Z,3.08
2023-04-23T01:48:10.318Z,2.92
2023-04-23T01:51:02.480Z,3.55
2023-04-23T01:53:49.768Z,3.65
2023-04-23T01:56:37.130Z,2.67
2023-04-23T01:59:24.366Z,3.38
2023-04-23T02:02:13.915Z,4.55
2023-04-23T02:05:04.629Z,2.65
2023-04-23T02:07:52.616Z,2.90
2023-04-23T02:10:39.850Z,2.83
2023-04-23T02:13:27.048Z,1.92
2023-04-23T02:16:14.321Z,2.78
2023-04-23T02:19:01.944Z,4.78
2023-04-23T02:21:53.472Z,4.85
2023-04-23T02:24:48.892Z,3.08
2023-04-23T02:27:36.156Z,2.33
2023-04-23T02:30:23.771Z,4.47
2023-04-23T02:33:11.193Z,3.42
2023-04-23T02:36:24.506Z,5.10
2023-04-23T02:39:12.327Z,2.90
2023-04-23T02:41:59.535Z,3.53
2023-04-23T02:44:47.099Z,3.22
2023-04-23T02:47:34.278Z,3.28
2023-04-23T02:50:24.486Z,3.10
2023-04-23T02:53:11.641Z,3.30
2023-04-23T02:55:58.769Z,3.17
2023-04-23T02:58:57.651Z,4.55
2023-04-23T03:01:52.137Z,3.83
2023-04-23T03:04:40.107Z,4.30
2023-04-23T03:07:27.777Z,7.25
2023-04-23T03:10:14.978Z,4.80
2023-04-23T03:13:02.118Z,4.60
2023-04-23T03:15:52.593Z,4.07
2023-04-23T03:18:39.774Z,5.97
2023-04-23T03:21:27.379Z,4.82
2023-04-23T03:24:15.199Z,4.72
2023-04-23T03:27:02.425Z,5.13
2023-04-23T03:29:52.425Z,3.67
2023-04-23T03:32:39.777Z,4.20
2023-04-23T03:35:26.957Z,5.22
2023-04-23T03:38:14.170Z,5.75
2023-04-23T03:41:01.399Z,6.53
2023-04-23T03:43:48.713Z,6.82
2023-04-23T03:46:35.988Z,5.47
2023-04-23T03:49:26.178Z,5.40
2023-04-23T03:52:13.433Z,6.18
2023-04-23T03:55:00.705Z,5.93
2023-04-23T03:57:47.891Z,7.47
2023-04-23T04:00:37.882Z,6.72
2023-04-23T04:03:37.219Z,8.30
2023-04-23T04:06:24.528Z,7.05
2023-04-23T04:09:12.161Z,6.18
2023-04-23T04:11:59.413Z,5.88
2023-04-23T04:14:49.032Z,6.88
2023-04-23T04:17:36.280Z,6.70
2023-04-23T04:20:23.494Z,4.45
2023-04-23T04:23:10.739Z,5.68
2023-04-23T04:25:59.971Z,6.88
2023-04-23T04:28:47.370Z,4.45
2023-04-23T04:31:34.933Z,7.45
2023-04-23T04:34:24.607Z,3.95
2023-04-23T04:37:11.815Z,4.10
2023-04-23T04:39:59.080Z,2.60
2023-04-23T04:42:49.826Z,2.95
2023-04-23T04:45:36.963Z,4.95
2023-04-23T04:48:24.184Z,6.30
2023-04-23T04:51:11.466Z,4.07
2023-04-23T04:53:58.974Z,3.35
2023-04-23T04:56:47.575Z,3.00
2023-04-23T04:59:37.455Z,2.58
2023-04-23T05:02:27.036Z,3.33
2023-04-23T05:05:14.279Z,3.78
2023-04-23T05:08:02.443Z,3.90
2023-04-23T05:10:54.213Z,4.45
2023-04-23T05:13:41.877Z,4.63
2023-04-23T05:16:29.052Z,2.42
2023-04-23T05:19:16.446Z,2.85
2023-04-23T05:22:03.847Z,1.95
2023-04-23T05:24:51.190Z,2.78
2023-04-23T05:27:39.101Z,2.35
2023-04-23T05:30:28.526Z,4.70
2023-04-23T05:33:16.150Z,2.03
2023-04-23T05:36:03.863Z,3.50
2023-04-23T05:38:53.641Z,2.15
2023-04-23T05:41:41.289Z,1.92
2023-04-23T05:44:29.224Z,1.60
2023-04-23T05:47:16.713Z,4.68
2023-04-23T05:50:09.998Z,1.98
2023-04-23T05:52:57.171Z,1.65
2023-04-23T05:55:47.498Z,1.50
2023-04-23T05:58:35.621Z,1.98
2023-04-23T06:01:25.444Z,3.42
2023-04-23T06:04:13.143Z,1.75
2023-04-23T06:07:02.530Z,1.98
2023-04-23T06:09:49.665Z,1.48
2023-04-23T06:12:39.288Z,1.95
2023-04-23T06:15:27.320Z,1.00
2023-04-23T06:18:14.802Z,1.25
2023-04-23T06:21:06.119Z,1.60
2023-04-23T06:23:55.620Z,1.60
2023-04-23T06:26:42.875Z,1.55
2023-04-23T06:29:32.441Z,1.70
2023-04-23T06:32:20.495Z,1.35
2023-04-23T06:35:08.796Z,1.48
2023-04-23T06:37:56.366Z,1.38
2023-04-23T06:40:43.888Z,1.42
2023-04-23T06:43:31.684Z,2.45
2023-04-23T06:46:21.260Z,2.17
2023-04-23T06:49:09.744Z,2.13
2023-04-23T06:51:57.941Z,2.10
2023-04-23T06:54:47.840Z,1.95
2023-04-23T06:57:36.341Z,1.30
2023-04-23T07:00:24.225Z,4.40
2023-04-23T07:03:12.004Z,1.33
2023-04-23T07:05:59.683Z,2.35
2023-04-23T07:08:49.644Z,2.22
2023-04-23T07:11:37.254Z,1.98
2023-04-23T07:14:27.170Z,1.10
2023-04-23T07:17:14.950Z,1.85
2023-04-23T07:20:06.953Z,1.95
2023-04-23T07:22:57.307Z,1.17
2023-04-23T07:25:44.577Z,0.90
2023-04-23T07:28:32.952Z,1.00
2023-04-23T07:31:21.970Z,1.85
2023-04-23T07:34:10.332Z,1.95
2023-04-23T07:36:58.050Z,1.25
2023-04-23T07:39:49.196Z,1.73
2023-04-23T07:42:36.810Z,2.00
2023-04-23T07:45:26.752Z,2.30
2023-04-23T07:48:14.131Z,2.90
2023-04-23T07:51:03.854Z,2.08
2023-04-23T07:53:53.299Z,1.30
2023-04-23T07:56:43.129Z,1.70
2023-04-23T07:59:30.750Z,1.20
2023-04-23T08:02:18.797Z,1.52
2023-04-23T08:05:06.958Z,6.20
2023-04-23T08:07:54.296Z,1.45
2023-04-23T08:10:41.718Z,0.90
2023-04-23T08:13:28.846Z,1.50
2023-04-23T08:16:18.464Z,2.30
2023-04-23T08:19:06.632Z,2.05
2023-04-23T08:21:54.363Z,1.52
2023-04-23T08:24:41.752Z,3.67
2023-04-23T08:27:29.046Z,1.00
2023-04-23T08:30:16.701Z,2.67
2023-04-23T08:33:12.421Z,1.88
2023-04-23T08:35:59.678Z,1.85
2023-04-23T08:38:47.505Z,1.33
2023-04-23T08:41:44.998Z,2.22
2023-04-23T08:44:33.330Z,1.52
2023-04-23T08:47:24.520Z,1.42
2023-04-23T08:50:13.265Z,2.33
2023-04-23T08:53:08.542Z,2.47
2023-04-23T08:56:00.266Z,1.77
2023-04-23T08:58:48.205Z,1.40
2023-04-23T09:01:36.116Z,2.38
2023-04-23T09:04:24.888Z,1.88
2023-04-23T09:07:13.623Z,2.70
2023-04-23T09:10:01.385Z,1.83
2023-04-23T09:12:48.928Z,1.40
2023-04-23T09:15:39.607Z,1.20
2023-04-23T09:18:27.079Z,2.35
2023-04-23T09:21:19.647Z,2.25
2023-04-23T09:24:13.711Z,2.17
2023-04-23T09:27:03.849Z,2.10
2023-04-23T09:29:53.632Z,3.20
2023-04-23T09:32:42.986Z,1.48
2023-04-23T09:35:30.313Z,1.30
2023-04-23T09:38:20.135Z,0.85
2023-04-23T09:41:31.244Z,1.88
2023-04-23T09:44:20.533Z,1.17
2023-04-23T09:47:15.780Z,2.65
2023-04-23T09:50:03.637Z,2.88
2023-04-23T09:52:59.418Z,1.02
2023-04-23T09:55:57.822Z,1.40
2023-04-23T09:58:46.551Z,0.65
2023-04-23T10:01:37.180Z,1.30
2023-04-23T10:04:25.831Z,2.58
2023-04-23T10:07:20.285Z,1.95
2023-04-23T10:10:08.680Z,1.63
2023-04-23T10:12:57.525Z,3.13
2023-04-23T10:15:47.994Z,1.05
2023-04-23T10:18:48.191Z,2.33
2023-04-23T10:21:50.194Z,1.77
2023-04-23T10:24:41.723Z,1.02
2023-04-23T10:27:48.374Z,1.48
2023-04-23T10:30:41.094Z,1.00
2023-04-23T10:33:39.865Z,1.38
2023-04-23T10:36:49.544Z,1.33
2023-04-23T10:39:52.049Z,2.67
2023-04-23T10:42:44.780Z,0.77
2023-04-23T10:45:34.109Z,1.67
2023-04-23T10:48:21.824Z,4.60
2023-04-23T10:52:02.574Z,1.27
2023-04-23T10:54:32.594Z,1.23
2023-04-23T10:57:22.353Z,1.65
2023-04-23T11:00:13.160Z,1.58
2023-04-23T11:03:03.117Z,0.73
2023-04-23T11:05:58.302Z,1.35
2023-04-23T11:08:57.092Z,2.40
2023-04-23T11:11:44.867Z,0.73
2023-04-23T11:14:36.577Z,1.40
2023-04-23T11:17:34.179Z,0.60
2023-04-23T11:20:28.570Z,2.55
2023-04-23T11:23:33.326Z,1.50
2023-04-23T11:26:23.638Z,0.60
2023-04-23T11:29:14.551Z,1.20
2023-04-23T11:32:04.114Z,0.90
2023-04-23T11:34:53.485Z,1.35
2023-04-23T11:37:55.572Z,3.03
2023-04-23T11:40:46.083Z,0.82
2023-04-23T11:43:34.806Z,0.90
2023-04-23T11:46:22.251Z,2.45
2023-04-23T11:49:10.203Z,1.00
2023-04-23T11:52:05.637Z,0.95
2023-04-23T11:54:54.900Z,1.27
2023-04-23T11:57:47.017Z,2.20
2023-04-23T12:00:34.261Z,0.73
2023-04-23T12:03:27.460Z,2.03
2023-04-23T12:06:18.211Z,2.05
2023-04-23T12:09:06.242Z,2.33
2023-04-23T12:11:53.982Z,2.55
2023-04-23T12:14:42.247Z,1.83
2023-04-23T12:17:32.054Z,0.60
2023-04-23T12:20:24.495Z,1.00
2023-04-23T12:23:12.109Z,1.92
2023-04-23T12:25:59.500Z,1.85
2023-04-23T12:29:16.959Z,1.77
2023-04-23T12:32:11.549Z,3.95
2023-04-23T12:35:02.278Z,1.05
2023-04-23T12:37:49.484Z,2.05
2023-04-23T12:40:39.355Z,2.20
2023-04-23T12:43:35.232Z,1.80
2023-04-23T12:46:22.609Z,1.88
2023-04-23T12:49:09.941Z,3.20
2023-04-23T12:52:10.913Z,1.42
2023-04-23T12:55:01.783Z,1.40
2023-04-23T12:57:50.785Z,1.60
2023-04-23T13:00:42.900Z,2.35
2023-04-23T13:03:31.785Z,3.92
2023-04-23T13:06:20.309Z,1.25
2023-04-23T13:09:12.865Z,1.75
2023-04-23T13:15:37.413Z,1.02
2023-04-23T13:18:31.096Z,1.10
2023-04-23T13:21:19.193Z,1.65
2023-04-23T13:24:17.983Z,0.90
2023-04-23T13:27:07.967Z,2.15
2023-04-23T13:29:59.302Z,0.60
2023-04-23T13:32:51.209Z,1.75
2023-04-23T13:35:44.560Z,1.85
2023-04-23T13:38:37.505Z,2.58
2023-04-23T13:41:24.988Z,2.45
2023-04-23T13:44:14.052Z,1.65
2023-04-23T13:47:04.285Z,1.83
2023-04-23T13:50:01.920Z,0.82
2023-04-23T13:52:49.563Z,1.85
2023-04-23T13:55:39.611Z,1.30
2023-04-23T13:58:26.968Z,1.65
2023-04-23T14:01:18.614Z,2.08
2023-04-23T14:14:19.651Z,4.35
2023-04-23T14:17:07.054Z,1.73
2023-04-23T14:20:10.052Z,2.47
2023-04-23T14:30:52.893Z,3.22
2023-04-23T14:37:09.589Z,2.15
2023-04-23T14:40:12.056Z,1.88
2023-04-23T14:43:15.767Z,1.58
2023-04-23T14:46:15.719Z,2.38
2023-04-23T14:49:07.853Z,2.30
2023-04-23T14:51:55.627Z,1.73
2023-04-23T14:54:42.990Z,1.45
2023-04-23T14:57:33.974Z,2.53
2023-04-23T15:00:22.826Z,4.07
2023-04-23T15:03:11.339Z,5.40
2023-04-23T15:05:59.011Z,1.48
2023-04-23T15:08:48.646Z,3.88
2023-04-23T15:11:39.047Z,3.70
2023-04-23T15:14:37.092Z,2.92
2023-04-23T15:17:34.209Z,3.20
2023-04-23T15:20:22.144Z,2.40
2023-04-23T15:23:24.524Z,3.05
2023-04-23T15:26:11.922Z,1.98
2023-04-23T15:29:00.299Z,3.92
2023-04-23T15:31:50.643Z,2.72
2023-04-23T15:42:40.360Z,3.20
2023-04-23T15:46:12.325Z,3.40
2023-04-23T16:16:20.287Z,4.53
2023-04-23T16:19:07.564Z,10.90
2023-04-23T16:22:33.288Z,10.38
2023-04-23T16:25:34.751Z,7.80
2023-04-23T16:28:45.801Z,6.28
2023-04-23T19:13:40.757Z,5.20
2023-04-23T19:16:32.792Z,2.67
2023-04-23T19:19:20.830Z,3.00
2023-04-23T19:22:11.597Z,11.85
2023-04-23T19:25:01.929Z,8.88
2023-04-23T19:27:56.959Z,4.05
2023-04-23T19:30:49.259Z,4.70
2023-04-23T19:33:49.229Z,1.42
2023-04-23T19:36:42.532Z,3.95
2023-04-23T19:39:41.662Z,5.47
2023-04-23T19:42:32.826Z,4.30
2023-04-23T19:45:53.908Z,9.75
2023-04-23T19:48:32.495Z,9.18
2023-04-23T19:51:25.769Z,3.85
2023-04-23T19:54:17.099Z,5.53
2023-04-23T19:57:25.316Z,3.58
2023-04-23T20:00:41.355Z,3.90
2023-04-23T20:03:38.202Z,2.83
2023-04-23T20:48:37.492Z,4.63
2023-04-23T20:51:51.495Z,3.22
2023-04-23T21:05:47.960Z,9.55
2023-04-23T22:10:11.273Z,2.38
2023-04-23T22:17:02.987Z,2.65
2023-04-23T22:23:55.490Z,2.28
2023-04-23T22:26:50.353Z,4.05
2023-04-23T22:30:48.320Z,2.97
2023-04-23T22:37:12.599Z,3.70
2023-04-23T22:40:09.886Z,5.85
2023-04-23T22:43:03.801Z,4.18
2023-04-23T22:45:51.374Z,2.78
2023-04-23T22:48:44.263Z,3.78
2023-04-23T22:52:12.127Z,5.35
2023-04-23T22:54:59.793Z,2.03
2023-04-23T23:04:40.016Z,3.38
2023-04-23T23:33:16.704Z,2.25
2023-04-23T23:36:12.402Z,4.05
2023-04-23T23:39:23.299Z,3.80
2023-04-23T23:42:21.718Z,3.47
2023-04-23T23:45:11.141Z,1.75
2023-04-23T23:48:09.096Z,3.17
2023-04-23T23:50:56.926Z,2.72
2023-04-23T23:53:50.895Z,1.83
